Time;durP1;ratioP1;P1;durP2;ratioP2;P2;SDS_P1;SDS_P2;PMS_P1;PMS_P2;Temp;Humidity;BMP_temperature;BMP_pressure;BME280_temperature;BME280_humidity;BME280_pressure;Samples;Min_cycle;Max_cycle;Signal;HPM_P1;HPM_P2
2022/04/03 00:00:36;;;;;;;6.70;4.90;;;1.20;99.50;;;;;;4992299;28;20045;-56
2022/04/03 00:03:04;;;;;;;10.90;6.25;;;1.20;99.70;;;;;;4997774;28;20040;-55
2022/04/03 00:05:33;;;;;;;8.70;5.18;;;1.30;99.90;;;;;;5011420;28;20758;-57
2022/04/03 00:07:59;;;;;;;12.43;5.70;;;1.30;99.90;;;;;;4981959;28;20041;-54
2022/04/03 00:10:24;;;;;;;9.00;4.88;;;1.30;99.90;;;;;;4992349;28;20045;-53
2022/04/03 00:12:50;;;;;;;7.68;5.20;;;1.40;99.90;;;;;;4998306;28;20047;-54
2022/04/03 00:15:16;;;;;;;10.05;5.72;;;1.40;99.90;;;;;;5022793;28;20038;-53
2022/04/03 00:17:43;;;;;;;7.80;5.30;;;1.40;99.90;;;;;;4994189;28;20116;-55
2022/04/03 00:20:10;;;;;;;9.60;5.57;;;1.50;99.90;;;;;;5010617;28;20045;-55
2022/04/03 00:22:36;;;;;;;8.50;5.97;;;1.50;99.90;;;;;;4999941;28;20048;-56
2022/04/03 00:25:02;;;;;;;8.73;5.82;;;1.60;99.90;;;;;;5001806;28;20045;-56
2022/04/03 00:27:28;;;;;;;8.70;6.13;;;1.60;99.90;;;;;;4982130;28;20046;-55
2022/04/03 00:29:54;;;;;;;9.23;5.97;;;1.60;99.90;;;;;;5000668;28;20041;-53
2022/04/03 00:32:20;;;;;;;7.70;5.15;;;1.60;99.90;;;;;;4983250;28;20139;-54
2022/04/03 00:34:46;;;;;;;7.57;5.50;;;1.60;99.90;;;;;;4996090;28;20033;-57
2022/04/03 00:37:12;;;;;;;6.13;4.20;;;1.60;99.90;;;;;;5005680;28;20510;-58
2022/04/03 00:39:38;;;;;;;5.38;2.42;;;1.60;99.90;;;;;;5012873;28;20040;-56
2022/04/03 00:42:08;;;;;;;5.47;2.60;;;1.70;99.90;;;;;;4996999;28;20076;-57
2022/04/03 00:44:37;;;;;;;5.10;2.50;;;1.80;99.90;;;;;;4995878;28;20053;-55
2022/04/03 00:47:04;;;;;;;3.42;1.90;;;1.80;99.90;;;;;;4986570;28;20036;-56
2022/04/03 00:49:31;;;;;;;5.47;2.60;;;1.90;99.90;;;;;;4981429;28;20053;-53
2022/04/03 00:51:57;;;;;;;5.10;2.72;;;1.90;99.90;;;;;;4989234;28;20052;-54
2022/04/03 00:54:24;;;;;;;4.38;2.67;;;2.00;99.90;;;;;;4959950;28;20160;-55
2022/04/03 00:56:51;;;;;;;5.05;2.33;;;2.10;99.90;;;;;;4966018;28;20095;-53
2022/04/03 00:59:16;;;;;;;5.78;2.78;;;2.10;99.90;;;;;;4997963;28;20132;-58
2022/04/03 01:01:43;;;;;;;6.18;2.35;;;2.10;99.90;;;;;;4989904;28;20037;-57
2022/04/03 01:04:10;;;;;;;17.10;6.00;;;2.20;99.90;;;;;;4976657;28;21369;-55
2022/04/03 01:06:36;;;;;;;10.55;4.57;;;2.20;99.90;;;;;;4999102;28;20107;-57
2022/04/03 01:09:03;;;;;;;12.35;4.78;;;2.20;99.90;;;;;;5006453;28;20041;-56
2022/04/03 01:11:29;;;;;;;9.20;4.57;;;2.30;99.90;;;;;;5000861;28;20065;-57
2022/04/03 01:13:57;;;;;;;9.38;4.57;;;2.20;99.90;;;;;;5005181;28;20518;-58
2022/04/03 01:16:23;;;;;;;7.55;3.80;;;2.30;99.90;;;;;;4997048;28;20450;-57
2022/04/03 01:18:50;;;;;;;7.28;3.67;;;2.30;99.90;;;;;;5004406;28;20379;-56
2022/04/03 01:21:17;;;;;;;6.97;3.45;;;2.30;99.90;;;;;;4997680;28;20139;-59
2022/04/03 01:23:43;;;;;;;6.57;3.90;;;2.30;99.90;;;;;;4982050;28;20087;-53
2022/04/03 01:26:09;;;;;;;7.40;3.60;;;2.30;99.90;;;;;;5000494;28;20087;-55
2022/04/03 01:28:35;;;;;;;9.32;4.32;;;2.30;99.90;;;;;;4967663;28;20465;-55
2022/04/03 01:31:01;;;;;;;8.50;4.25;;;2.30;99.90;;;;;;4998556;28;20041;-58
2022/04/03 01:33:26;;;;;;;9.27;3.90;;;2.30;99.90;;;;;;5003635;28;20360;-55
2022/04/03 01:35:52;;;;;;;6.47;3.97;;;2.30;99.90;;;;;;4998063;28;20204;-53
2022/04/03 01:38:18;;;;;;;16.83;7.15;;;2.30;99.90;;;;;;4980047;28;20502;-52
2022/04/03 01:40:44;;;;;;;16.17;6.20;;;2.30;99.90;;;;;;4989304;28;20502;-56
2022/04/03 01:43:10;;;;;;;14.40;8.30;;;2.30;99.90;;;;;;4999321;28;20083;-57
2022/04/03 01:45:37;;;;;;;25.27;10.55;;;2.30;99.90;;;;;;4995122;28;20046;-56
2022/04/03 01:48:04;;;;;;;32.35;13.35;;;2.20;99.90;;;;;;4984741;28;20497;-58
2022/04/03 01:50:30;;;;;;;24.80;10.43;;;2.20;99.90;;;;;;4992000;28;20052;-55
2022/04/03 01:52:56;;;;;;;17.00;7.10;;;2.20;99.90;;;;;;5001699;28;20051;-56
2022/04/03 01:55:24;;;;;;;9.95;5.60;;;2.20;99.90;;;;;;4999590;28;20042;-55
2022/04/03 01:57:50;;;;;;;9.43;4.35;;;2.20;99.90;;;;;;5002136;28;20229;-52
2022/04/03 02:00:15;;;;;;;7.97;4.55;;;2.20;99.90;;;;;;4998305;28;20221;-57
2022/04/03 02:02:41;;;;;;;5.35;3.70;;;2.20;99.90;;;;;;4986195;28;20370;-56
2022/04/03 02:05:08;;;;;;;7.07;4.03;;;2.20;99.90;;;;;;5015307;28;20054;-55
2022/04/03 02:07:34;;;;;;;8.35;5.53;;;2.20;99.90;;;;;;5000512;28;20405;-56
2022/04/03 02:10:01;;;;;;;12.68;7.00;;;2.20;99.90;;;;;;5002889;28;20402;-53
2022/04/03 02:12:27;;;;;;;6.97;4.63;;;2.20;99.90;;;;;;5015782;28;20057;-58
2022/04/03 02:14:53;;;;;;;5.75;3.80;;;2.20;99.90;;;;;;5001226;28;20441;-58
2022/04/03 02:17:18;;;;;;;6.25;3.92;;;2.10;99.90;;;;;;5015458;28;20474;-53
2022/04/03 02:19:44;;;;;;;7.67;4.20;;;2.10;99.90;;;;;;5004108;28;20498;-53
2022/04/03 02:22:10;;;;;;;5.65;3.78;;;2.20;99.90;;;;;;4984315;28;20041;-54
2022/04/03 02:24:36;;;;;;;8.52;3.85;;;2.10;99.90;;;;;;4997147;28;20141;-57
2022/04/03 02:27:02;;;;;;;6.70;3.70;;;2.10;99.90;;;;;;5003697;28;20099;-53
2022/04/03 02:29:27;;;;;;;6.72;4.65;;;2.10;99.90;;;;;;4992901;28;20110;-58
2022/04/03 02:31:53;;;;;;;7.40;5.22;;;2.10;99.90;;;;;;4999899;28;20042;-55
2022/04/03 02:34:19;;;;;;;10.52;6.55;;;2.10;99.90;;;;;;4995033;28;20081;-57
2022/04/03 02:36:45;;;;;;;10.80;6.50;;;2.10;99.90;;;;;;4977634;28;20055;-57
2022/04/03 02:39:12;;;;;;;7.88;5.68;;;2.10;99.90;;;;;;4982539;28;20045;-59
2022/04/03 02:41:38;;;;;;;6.38;4.63;;;2.10;99.90;;;;;;4996789;28;20049;-53
2022/04/03 02:44:04;;;;;;;5.95;4.25;;;2.00;99.90;;;;;;5003094;28;20606;-53
2022/04/03 02:46:30;;;;;;;7.68;4.30;;;2.00;99.90;;;;;;4995822;28;20163;-57
2022/04/03 02:48:56;;;;;;;7.43;3.60;;;2.00;99.90;;;;;;4996442;28;20132;-52
2022/04/03 02:51:22;;;;;;;9.82;3.35;;;1.90;99.90;;;;;;5012923;28;20409;-57
2022/04/03 02:53:48;;;;;;;5.38;3.10;;;1.90;99.90;;;;;;5003847;28;20049;-57
2022/04/03 02:56:14;;;;;;;9.13;3.28;;;1.90;99.90;;;;;;5016802;28;20334;-55
2022/04/03 02:58:40;;;;;;;4.50;2.75;;;1.90;99.90;;;;;;4999872;28;20045;-57
2022/04/03 03:01:06;;;;;;;7.57;2.97;;;1.90;99.90;;;;;;4993200;28;20053;-57
2022/04/03 03:03:32;;;;;;;7.13;2.90;;;1.80;99.90;;;;;;4979051;28;20057;-54
2022/04/03 03:05:58;;;;;;;5.75;2.67;;;1.80;99.90;;;;;;5001768;28;20116;-56
2022/04/03 03:08:23;;;;;;;4.50;2.75;;;1.80;99.90;;;;;;4997195;28;20310;-56
2022/04/03 03:10:49;;;;;;;6.22;2.75;;;1.80;99.90;;;;;;4998018;28;20048;-51
2022/04/03 03:13:16;;;;;;;5.32;3.15;;;1.70;99.90;;;;;;5003769;28;20563;-52
2022/04/03 03:15:42;;;;;;;6.05;2.67;;;1.70;99.90;;;;;;5001499;28;20033;-54
2022/04/03 03:18:08;;;;;;;7.05;3.00;;;1.70;99.90;;;;;;5000553;28;20045;-58
2022/04/03 03:20:34;;;;;;;6.68;3.17;;;1.60;99.90;;;;;;4989388;28;20037;-52
2022/04/03 03:23:00;;;;;;;4.22;2.42;;;1.60;99.90;;;;;;5002799;28;20135;-54
2022/04/03 03:25:27;;;;;;;4.97;2.50;;;1.60;99.90;;;;;;5000286;28;20037;-58
2022/04/03 03:27:52;;;;;;;6.60;2.53;;;1.60;99.90;;;;;;4985443;28;20052;-57
2022/04/03 03:30:18;;;;;;;4.22;2.60;;;1.60;99.90;;;;;;4996237;28;20490;-52
2022/04/03 03:32:44;;;;;;;5.40;3.00;;;1.60;99.90;;;;;;4997300;28;20069;-56
2022/04/03 03:35:10;;;;;;;4.50;2.10;;;1.60;99.90;;;;;;4978195;28;20100;-55
2022/04/03 03:37:37;;;;;;;5.13;2.35;;;1.60;99.90;;;;;;4992734;28;20137;-53
2022/04/03 03:40:06;;;;;;;6.55;2.67;;;1.70;99.90;;;;;;4982889;28;20407;-56
2022/04/03 03:42:33;;;;;;;4.97;2.72;;;1.60;99.90;;;;;;4973713;28;20044;-53
2022/04/03 03:44:59;;;;;;;4.28;2.80;;;1.70;99.90;;;;;;4985715;28;20033;-54
2022/04/03 03:47:25;;;;;;;5.18;2.65;;;1.70;99.90;;;;;;4994627;28;20595;-54
2022/04/03 03:49:51;;;;;;;3.67;2.88;;;1.60;99.90;;;;;;5012087;28;20313;-51
2022/04/03 03:52:17;;;;;;;5.57;2.80;;;1.60;99.90;;;;;;4997932;28;20516;-57
2022/04/03 03:54:44;;;;;;;5.68;3.10;;;1.60;99.90;;;;;;4998834;28;20037;-57
2022/04/03 03:57:10;;;;;;;5.82;3.33;;;1.60;99.90;;;;;;5001956;28;20041;-53
2022/04/03 03:59:36;;;;;;;3.80;2.35;;;1.60;99.90;;;;;;4982296;28;20674;-54
2022/04/03 04:02:02;;;;;;;4.55;2.60;;;1.60;99.90;;;;;;4999522;28;20084;-55
2022/04/03 04:04:29;;;;;;;3.67;2.28;;;1.50;99.90;;;;;;4982475;28;20053;-54
2022/04/03 04:06:55;;;;;;;5.93;2.33;;;1.50;99.90;;;;;;5018143;28;20045;-57
2022/04/03 04:09:21;;;;;;;3.60;1.90;;;1.50;99.90;;;;;;4981826;28;20087;-51
2022/04/03 04:11:47;;;;;;;5.75;2.05;;;1.50;99.90;;;;;;4985096;28;20041;-51
2022/04/03 04:14:13;;;;;;;3.05;2.08;;;1.50;99.90;;;;;;5022255;28;20519;-52
2022/04/03 04:16:40;;;;;;;3.22;1.80;;;1.40;99.90;;;;;;5000829;28;20455;-52
2022/04/03 04:19:06;;;;;;;4.18;1.90;;;1.50;99.90;;;;;;4993884;28;20050;-51
2022/04/03 04:21:32;;;;;;;4.95;2.00;;;1.40;99.90;;;;;;4959132;28;20510;-55
2022/04/03 04:23:59;;;;;;;2.85;1.58;;;1.30;99.90;;;;;;4983806;28;20433;-54
2022/04/03 04:26:25;;;;;;;2.60;1.85;;;1.30;99.90;;;;;;5011876;28;20088;-52
2022/04/03 04:28:51;;;;;;;5.57;1.90;;;1.40;99.90;;;;;;5001861;28;20038;-57
2022/04/03 04:31:18;;;;;;;4.03;1.83;;;1.30;99.90;;;;;;4987986;28;20048;-58
2022/04/03 04:33:44;;;;;;;3.03;1.58;;;1.30;99.90;;;;;;5000139;28;20465;-53
2022/04/03 04:36:10;;;;;;;5.90;1.83;;;1.30;99.90;;;;;;4987974;28;20041;-52
2022/04/03 04:38:36;;;;;;;3.88;1.80;;;1.30;99.90;;;;;;5000532;28;20403;-55
2022/04/03 04:41:02;;;;;;;4.15;1.70;;;1.20;99.90;;;;;;5017403;28;20041;-52
2022/04/03 04:43:28;;;;;;;3.08;1.45;;;1.20;99.90;;;;;;5007211;28;20025;-52
2022/04/03 04:45:54;;;;;;;3.72;1.40;;;1.20;99.90;;;;;;4983518;28;20052;-55
2022/04/03 04:48:19;;;;;;;5.65;1.95;;;1.20;99.90;;;;;;4985614;28;20045;-53
2022/04/03 04:50:45;;;;;;;3.00;2.00;;;1.20;99.90;;;;;;4971772;28;20036;-52
2022/04/03 04:53:11;;;;;;;4.50;2.00;;;1.20;99.90;;;;;;4983691;28;20510;-56
2022/04/03 04:55:37;;;;;;;4.07;1.70;;;1.20;99.90;;;;;;5008907;28;20152;-53
2022/04/03 04:58:02;;;;;;;3.95;1.45;;;1.20;99.90;;;;;;4993239;28;20045;-56
2022/04/03 05:00:30;;;;;;;3.97;1.60;;;1.20;99.90;;;;;;4983238;28;20041;-58
2022/04/03 05:02:57;;;;;;;7.40;1.90;;;1.10;99.90;;;;;;5001480;28;20490;-53
2022/04/03 05:05:23;;;;;;;3.80;2.05;;;1.10;99.90;;;;;;4985510;28;20610;-55
2022/04/03 05:07:55;;;;;;;4.75;1.75;;;1.10;99.90;;;;;;4982780;28;20050;-54
2022/04/03 05:10:21;;;;;;;3.70;1.60;;;1.00;99.90;;;;;;5003476;28;20050;-55
2022/04/03 05:12:47;;;;;;;4.18;1.60;;;1.00;99.90;;;;;;4982768;28;20429;-54
2022/04/03 05:15:13;;;;;;;3.05;1.50;;;1.00;99.90;;;;;;4986615;28;20060;-56
2022/04/03 05:17:41;;;;;;;3.08;1.70;;;1.00;99.90;;;;;;4984037;28;20038;-55
2022/04/03 05:20:07;;;;;;;4.63;1.88;;;1.00;99.90;;;;;;4983579;28;20096;-53
2022/04/03 05:22:34;;;;;;;5.63;1.60;;;1.00;99.90;;;;;;4984433;28;20077;-54
2022/04/03 05:25:01;;;;;;;3.85;1.60;;;1.00;99.90;;;;;;5004345;28;20121;-55
2022/04/03 05:27:27;;;;;;;3.83;1.80;;;1.10;99.90;;;;;;4982706;28;20143;-54
2022/04/03 05:29:54;;;;;;;4.72;1.92;;;1.10;99.90;;;;;;4979175;28;20041;-58
2022/04/03 05:32:31;;;;;;;7.28;1.77;;;1.10;99.90;;;;;;4945597;28;20524;-55
2022/04/03 05:34:58;;;;;;;3.65;1.75;;;1.20;99.90;;;;;;4979635;28;20235;-53
2022/04/03 05:37:24;;;;;;;3.22;1.23;;;1.10;99.90;;;;;;5002656;28;20521;-52
2022/04/03 05:39:51;;;;;;;4.40;1.55;;;1.10;99.90;;;;;;4982421;28;20060;-55
2022/04/03 05:42:18;;;;;;;4.03;1.58;;;1.10;99.90;;;;;;5017141;28;20261;-55
2022/04/03 05:44:43;;;;;;;5.78;1.80;;;1.10;99.90;;;;;;5004890;28;20128;-56
2022/04/03 05:47:09;;;;;;;7.85;1.75;;;1.20;99.90;;;;;;5004343;28;20120;-57
2022/04/03 05:49:35;;;;;;;5.25;1.70;;;1.20;99.90;;;;;;5018871;28;20033;-56
2022/04/03 05:52:02;;;;;;;7.47;1.80;;;1.20;99.90;;;;;;4969536;28;20045;-52
2022/04/03 05:54:27;;;;;;;9.57;2.20;;;1.30;99.90;;;;;;5016392;28;20207;-55
2022/04/03 05:56:53;;;;;;;4.75;1.75;;;1.30;99.90;;;;;;5014191;28;20052;-53
2022/04/03 05:59:20;;;;;;;3.70;1.70;;;1.40;99.90;;;;;;5000801;28;20546;-55
2022/04/03 06:01:46;;;;;;;4.82;1.50;;;1.30;99.90;;;;;;5002669;28;20041;-54
2022/04/03 06:04:12;;;;;;;5.93;1.88;;;1.30;99.90;;;;;;5002421;28;20516;-56
2022/04/03 06:06:38;;;;;;;5.82;1.70;;;1.40;99.90;;;;;;4986056;28;20034;-55
2022/04/03 06:09:04;;;;;;;7.50;2.33;;;1.40;99.90;;;;;;4986148;28;20077;-51
2022/04/03 06:11:30;;;;;;;6.70;1.80;;;1.40;99.90;;;;;;4983151;28;20069;-55
2022/04/03 06:13:55;;;;;;;4.13;1.70;;;1.40;99.90;;;;;;5004389;28;20578;-53
2022/04/03 06:16:21;;;;;;;3.88;1.80;;;1.40;99.90;;;;;;5005777;28;20033;-55
2022/04/03 06:18:47;;;;;;;4.57;1.70;;;1.50;99.90;;;;;;5021305;28;20041;-55
2022/04/03 06:21:13;;;;;;;8.10;3.03;;;1.50;99.90;;;;;;5016595;28;20053;-55
2022/04/03 06:23:38;;;;;;;4.97;1.70;;;1.60;99.90;;;;;;5018482;28;20477;-56
2022/04/03 06:26:04;;;;;;;5.00;2.08;;;1.60;99.90;;;;;;4997588;28;20033;-52
2022/04/03 06:28:30;;;;;;;2.83;1.80;;;1.60;99.90;;;;;;4994338;28;20056;-52
2022/04/03 06:30:56;;;;;;;4.38;1.70;;;1.70;99.90;;;;;;4997050;28;20051;-52
2022/04/03 06:33:22;;;;;;;7.40;1.70;;;1.80;99.90;;;;;;4992229;28;20049;-54
2022/04/03 06:35:49;;;;;;;3.00;1.77;;;1.90;99.90;;;;;;4980891;28;20049;-55
2022/04/03 06:38:15;;;;;;;4.38;1.55;;;2.00;99.90;;;;;;4985687;28;20072;-56
2022/04/03 06:40:51;;;;;;;7.15;2.35;;;2.10;99.90;;;;;;4977737;28;20506;-61
2022/04/03 06:43:30;;;;;;;10.50;7.45;;;2.10;99.90;;;;;;4978157;28;20071;-56
2022/04/03 06:45:56;;;;;;;21.27;13.82;;;2.20;99.90;;;;;;4984775;28;20041;-52
2022/04/03 06:48:23;;;;;;;18.05;13.98;;;2.40;99.90;;;;;;4999875;28;22365;-55
2022/04/03 06:50:49;;;;;;;15.93;10.32;;;2.50;99.90;;;;;;5018608;28;20056;-64
2022/04/03 06:53:15;;;;;;;6.72;3.63;;;2.80;99.90;;;;;;4995456;28;20057;-56
2022/04/03 06:55:41;;;;;;;5.78;2.97;;;3.00;99.90;;;;;;4991283;28;20139;-57
2022/04/03 06:58:07;;;;;;;4.95;2.15;;;3.10;99.90;;;;;;4990190;28;20058;-55
2022/04/03 07:00:37;;;;;;;8.10;2.60;;;3.20;99.90;;;;;;5013764;28;20228;-56
2022/04/03 07:03:03;;;;;;;5.38;2.00;;;3.40;99.90;;;;;;4993738;28;20120;-57
2022/04/03 07:05:28;;;;;;;5.78;1.85;;;3.50;99.90;;;;;;4988965;28;20750;-56
2022/04/03 07:07:54;;;;;;;9.23;2.22;;;3.60;99.90;;;;;;4999624;28;20034;-58
2022/04/03 07:10:20;;;;;;;5.32;1.80;;;3.80;99.90;;;;;;4998113;28;20049;-59
2022/04/03 07:12:46;;;;;;;4.07;1.42;;;4.00;99.90;;;;;;4986680;28;20041;-55
2022/04/03 07:15:13;;;;;;;4.03;1.92;;;4.10;99.90;;;;;;5001808;28;20220;-58
2022/04/03 07:17:43;;;;;;;3.88;1.85;;;4.30;99.90;;;;;;4998355;28;20056;-60
2022/04/03 07:20:13;;;;;;;3.22;1.52;;;4.40;99.90;;;;;;5000242;28;20041;-61
2022/04/03 07:22:40;;;;;;;5.68;1.30;;;4.60;99.90;;;;;;4995752;28;20565;-53
2022/04/03 07:25:06;;;;;;;4.70;1.23;;;4.60;99.90;;;;;;4996921;28;20506;-57
2022/04/03 07:27:32;;;;;;;7.15;1.80;;;4.70;99.90;;;;;;4996463;28;20037;-56
2022/04/03 07:29:58;;;;;;;2.47;1.10;;;4.80;99.90;;;;;;4993262;28;20074;-54
2022/04/03 07:32:24;;;;;;;5.32;1.23;;;4.80;99.90;;;;;;4997594;28;20091;-61
2022/04/03 07:34:50;;;;;;;3.28;0.90;;;4.80;99.90;;;;;;4985380;28;20049;-57
2022/04/03 07:37:16;;;;;;;1.13;0.68;;;4.80;99.90;;;;;;4998822;28;20041;-56
2022/04/03 07:39:42;;;;;;;2.53;0.80;;;4.80;99.90;;;;;;4995670;28;20059;-57
2022/04/03 07:42:07;;;;;;;2.05;0.82;;;4.90;99.90;;;;;;5013425;28;20068;-54
2022/04/03 07:44:34;;;;;;;2.58;1.10;;;4.90;99.90;;;;;;5008648;28;20132;-56
2022/04/03 07:47:01;;;;;;;2.72;0.90;;;5.00;99.90;;;;;;4989197;28;20329;-56
2022/04/03 07:49:27;;;;;;;3.08;1.58;;;5.00;99.90;;;;;;4994312;28;20046;-61
2022/04/03 07:51:53;;;;;;;3.42;1.63;;;5.20;99.90;;;;;;4998612;28;20045;-60
2022/04/03 07:54:19;;;;;;;5.45;1.90;;;5.20;99.90;;;;;;4997095;28;20041;-57
2022/04/03 07:56:44;;;;;;;4.10;1.52;;;5.20;99.90;;;;;;5018110;28;20091;-51
2022/04/03 07:59:10;;;;;;;2.78;1.48;;;5.20;99.90;;;;;;4990833;28;20136;-55
2022/04/03 08:01:36;;;;;;;2.97;1.13;;;5.40;99.90;;;;;;5019702;28;20116;-56
2022/04/03 08:04:02;;;;;;;1.60;0.70;;;5.50;99.90;;;;;;5016577;28;20541;-61
2022/04/03 08:06:28;;;;;;;2.08;0.60;;;5.60;99.90;;;;;;4981410;28;20037;-56
2022/04/03 08:08:54;;;;;;;4.45;1.02;;;5.70;99.90;;;;;;5002121;28;20099;-58
2022/04/03 08:11:19;;;;;;;3.03;1.20;;;5.80;99.90;;;;;;5000077;28;20036;-57
2022/04/03 08:13:47;;;;;;;3.42;0.98;;;5.80;99.90;;;;;;4982418;28;20041;-56
2022/04/03 08:16:14;;;;;;;3.83;0.82;;;5.90;99.90;;;;;;5004058;28;20049;-56
2022/04/03 08:18:40;;;;;;;4.10;0.90;;;5.90;99.90;;;;;;4985005;28;20054;-59
2022/04/03 08:21:06;;;;;;;2.10;0.80;;;5.90;99.90;;;;;;4989370;28;20044;-55
2022/04/03 08:23:32;;;;;;;2.13;0.80;;;6.00;99.90;;;;;;4989890;28;20033;-53
2022/04/03 08:25:57;;;;;;;1.65;0.63;;;6.20;99.90;;;;;;4981225;28;20077;-54
2022/04/03 08:28:23;;;;;;;1.58;0.70;;;6.40;99.90;;;;;;5023069;28;20106;-53
2022/04/03 08:30:49;;;;;;;2.10;0.70;;;6.40;99.90;;;;;;5021573;28;20045;-55
2022/04/03 08:33:15;;;;;;;2.47;0.60;;;6.40;99.90;;;;;;5034045;28;20041;-60
2022/04/03 08:35:41;;;;;;;4.25;1.42;;;6.40;99.90;;;;;;5005307;28;20502;-59
2022/04/03 08:38:08;;;;;;;4.30;1.00;;;6.40;99.90;;;;;;5009660;28;20134;-53
2022/04/03 08:40:34;;;;;;;2.08;1.30;;;6.40;99.90;;;;;;5012596;28;20131;-56
2022/04/03 08:43:02;;;;;;;2.05;1.10;;;6.40;99.90;;;;;;5015277;28;20466;-54
2022/04/03 08:45:28;;;;;;;6.97;3.03;;;6.40;99.90;;;;;;4993662;28;20083;-56
2022/04/03 08:47:56;;;;;;;4.18;1.67;;;6.30;99.90;;;;;;5028936;28;20485;-60
2022/04/03 08:50:41;;;;;;;4.15;2.00;;;6.30;99.90;;;;;;4997118;28;20056;-53
2022/04/03 08:53:08;;;;;;;10.25;3.78;;;6.40;99.90;;;;;;5002774;28;20131;-51
2022/04/03 08:55:37;;;;;;;6.97;2.70;;;6.50;99.90;;;;;;5006791;28;20298;-56
2022/04/03 08:58:03;;;;;;;9.50;1.83;;;6.80;99.90;;;;;;5028416;28;20045;-59
2022/04/03 09:00:32;;;;;;;5.35;1.98;;;6.90;99.90;;;;;;5008464;28;20042;-54
2022/04/03 09:02:58;;;;;;;17.13;6.45;;;7.00;99.90;;;;;;5009840;28;20048;-54
2022/04/03 09:05:40;;;;;;;19.30;6.95;;;7.00;99.90;;;;;;5029629;28;20109;-56
2022/04/03 09:08:07;;;;;;;11.70;4.03;;;6.70;98.60;;;;;;5010406;28;20049;-59
2022/04/03 09:10:34;;;;;;;13.85;4.82;;;6.60;98.80;;;;;;5001804;28;20128;-59
2022/04/03 09:13:00;;;;;;;10.23;3.10;;;6.50;98.80;;;;;;5009371;28;20481;-51
2022/04/03 09:15:28;;;;;;;7.60;3.28;;;6.50;99.90;;;;;;5012091;28;20048;-56
2022/04/03 09:17:59;;;;;;;7.10;2.33;;;6.50;99.90;;;;;;5002585;28;20125;-57
2022/04/03 09:20:30;;;;;;;4.18;1.10;;;6.60;99.90;;;;;;5007864;28;20060;-55
2022/04/03 09:23:01;;;;;;;2.63;1.30;;;6.90;99.70;;;;;;5012587;28;20040;-60
2022/04/03 09:25:32;;;;;;;2.95;1.00;;;7.00;99.00;;;;;;5013045;28;20065;-57
2022/04/03 09:28:00;;;;;;;2.08;1.23;;;6.80;97.90;;;;;;5010469;28;20042;-54
2022/04/03 09:30:33;;;;;;;4.97;1.42;;;6.80;98.60;;;;;;5013285;28;20064;-56
2022/04/03 09:33:00;;;;;;;2.67;1.00;;;7.10;98.80;;;;;;5002504;28;20053;-60
2022/04/03 09:35:31;;;;;;;3.90;0.90;;;7.30;98.20;;;;;;5011657;28;20607;-53
2022/04/03 09:38:16;;;;;;;3.58;1.20;;;7.60;97.40;;;;;;5011814;28;20052;-51
2022/04/03 09:40:46;;;;;;;1.92;0.88;;;7.60;96.50;;;;;;5009699;28;20521;-54
2022/04/03 09:43:25;;;;;;;4.25;1.30;;;7.80;96.50;;;;;;5011096;28;20513;-58
2022/04/03 09:45:54;;;;;;;4.60;1.17;;;7.90;94.90;;;;;;4991992;28;20048;-53
2022/04/03 09:48:26;;;;;;;7.63;1.48;;;8.10;95.70;;;;;;4986164;28;20128;-53
2022/04/03 09:51:00;;;;;;;2.10;0.70;;;8.30;95.30;;;;;;4998031;28;20041;-56
2022/04/03 09:53:28;;;;;;;2.75;0.80;;;8.20;94.10;;;;;;5000472;28;20053;-56
2022/04/03 09:55:54;;;;;;;8.25;3.33;;;8.00;93.80;;;;;;5012859;28;20175;-53
2022/04/03 09:58:20;;;;;;;3.50;1.00;;;7.80;94.50;;;;;;5019917;28;20059;-57
2022/04/03 10:00:46;;;;;;;4.88;1.50;;;7.70;94.70;;;;;;5012848;28;20057;-53
2022/04/03 10:03:13;;;;;;;3.08;1.10;;;7.40;95.40;;;;;;5045774;28;20326;-56
2022/04/03 10:05:39;;;;;;;7.00;3.50;;;7.30;96.30;;;;;;5008082;28;20095;-64
2022/04/03 10:08:06;;;;;;;3.95;1.60;;;7.20;96.40;;;;;;5003873;28;20050;-56
2022/04/03 10:10:34;;;;;;;6.18;2.10;;;7.40;96.60;;;;;;5014242;28;20041;-52
2022/04/03 10:13:01;;;;;;;4.93;1.77;;;7.70;95.90;;;;;;4999782;28;20045;-56
2022/04/03 10:15:28;;;;;;;4.72;1.13;;;7.90;93.30;;;;;;5010200;28;20052;-58
2022/04/03 10:17:54;;;;;;;4.78;1.67;;;8.10;93.60;;;;;;5010573;28;20041;-54
2022/04/03 10:20:25;;;;;;;2.67;0.93;;;8.30;92.00;;;;;;4996522;28;20622;-61
2022/04/03 10:22:55;;;;;;;2.78;0.70;;;8.00;90.60;;;;;;5018096;28;20077;-55
2022/04/03 10:25:38;;;;;;;4.95;0.80;;;7.90;91.00;;;;;;5012695;28;20045;-53
2022/04/03 10:28:07;;;;;;;2.38;1.10;;;7.90;91.50;;;;;;5026308;28;20502;-57
2022/04/03 10:30:36;;;;;;;5.38;1.27;;;7.80;91.70;;;;;;4987815;28;20092;-58
2022/04/03 10:33:02;;;;;;;2.20;0.90;;;7.70;91.60;;;;;;5019831;28;20410;-57
2022/04/03 10:35:28;;;;;;;7.38;1.08;;;7.60;92.30;;;;;;4993332;28;20052;-54
2022/04/03 10:38:05;;;;;;;2.63;0.82;;;7.60;92.60;;;;;;5027601;28;20042;-58
2022/04/03 10:40:33;;;;;;;2.58;0.70;;;7.80;93.70;;;;;;5010398;28;20053;-66
2022/04/03 10:43:02;;;;;;;2.63;0.70;;;8.30;94.80;;;;;;5006945;28;20162;-56
2022/04/03 10:45:32;;;;;;;1.92;0.80;;;8.50;94.90;;;;;;5011263;28;20338;-52
2022/04/03 10:48:28;;;;;;;5.15;1.20;;;8.50;94.00;;;;;;5022549;28;20044;-57
2022/04/03 10:51:01;;;;;;;3.35;0.85;;;8.40;93.80;;;;;;5000828;28;20060;-57
2022/04/03 10:53:33;;;;;;;2.55;0.70;;;8.30;94.10;;;;;;5004536;28;20267;-55
2022/04/03 10:56:07;;;;;;;3.35;0.90;;;8.20;94.20;;;;;;4999149;28;20091;-55
2022/04/03 10:58:45;;;;;;;1.45;0.70;;;8.00;94.50;;;;;;5011990;28;20033;-61
2022/04/03 11:01:25;;;;;;;3.08;0.88;;;7.90;95.00;;;;;;5008642;28;20397;-55
2022/04/03 11:03:58;;;;;;;2.63;0.90;;;7.90;95.30;;;;;;5004183;28;20045;-52
2022/04/03 11:06:27;;;;;;;2.45;0.85;;;7.90;95.40;;;;;;5020481;28;20083;-63
2022/04/03 11:09:25;;;;;;;2.08;0.80;;;7.90;95.70;;;;;;4993023;28;20140;-54
2022/04/03 11:12:00;;;;;;;4.30;1.15;;;7.90;95.10;;;;;;5013835;28;20132;-52
2022/04/03 11:14:57;;;;;;;2.47;0.88;;;7.90;94.80;;;;;;5016012;28;20518;-59
2022/04/03 11:17:43;;;;;;;6.03;0.95;;;8.30;93.10;;;;;;5019165;28;20383;-53
2022/04/03 11:20:09;;;;;;;3.35;0.98;;;8.60;92.20;;;;;;5002178;28;20043;-58
2022/04/03 11:22:36;;;;;;;3.15;0.80;;;8.50;89.70;;;;;;5012014;28;20116;-53
2022/04/03 11:25:02;;;;;;;3.67;0.88;;;8.30;86.40;;;;;;4992524;28;20316;-52
2022/04/03 11:27:28;;;;;;;3.38;1.05;;;8.50;89.00;;;;;;5011455;28;20402;-53
2022/04/03 11:29:54;;;;;;;4.05;0.57;;;8.90;88.20;;;;;;5019852;28;20509;-54
2022/04/03 11:32:20;;;;;;;2.85;0.40;;;9.30;86.60;;;;;;5009810;28;20046;-59
2022/04/03 11:35:01;;;;;;;2.15;0.60;;;9.30;83.20;;;;;;4987155;28;20559;-55
2022/04/03 11:37:26;;;;;;;1.35;0.45;;;8.90;81.10;;;;;;5033777;28;20325;-55
2022/04/03 11:39:53;;;;;;;1.00;0.50;;;9.00;82.40;;;;;;5004750;28;20046;-53
2022/04/03 11:42:22;;;;;;;3.85;0.93;;;8.90;80.30;;;;;;5009504;28;20058;-53
2022/04/03 11:44:54;;;;;;;2.65;0.82;;;8.50;84.60;;;;;;5031649;22;20065;-61
2022/04/03 11:47:24;;;;;;;1.73;0.60;;;8.50;85.00;;;;;;5023057;28;20064;-53
2022/04/03 11:50:07;;;;;;;3.50;0.52;;;8.70;85.30;;;;;;5009037;28;20043;-55
2022/04/03 11:52:35;;;;;;;1.25;0.60;;;9.30;81.70;;;;;;5023196;28;20025;-53
2022/04/03 11:55:01;;;;;;;3.13;0.65;;;9.60;79.50;;;;;;5025785;28;20049;-60
2022/04/03 11:57:27;;;;;;;2.38;0.60;;;9.30;74.90;;;;;;5010064;28;20041;-56
2022/04/03 11:59:56;;;;;;;1.92;0.50;;;9.30;74.10;;;;;;5022903;28;20081;-51
2022/04/03 12:02:22;;;;;;;2.03;0.50;;;9.30;78.20;;;;;;5016065;28;20128;-55
2022/04/03 12:04:47;;;;;;;2.72;0.65;;;9.20;77.30;;;;;;5024332;28;20128;-54
2022/04/03 12:07:16;;;;;;;3.35;1.17;;;9.00;79.70;;;;;;5016235;28;20041;-61
2022/04/03 12:09:45;;;;;;;3.63;1.48;;;9.30;81.60;;;;;;5008945;28;20091;-54
2022/04/03 12:12:12;;;;;;;2.17;0.82;;;9.10;77.40;;;;;;5008805;28;20041;-54
2022/04/03 12:14:42;;;;;;;4.30;1.00;;;9.30;77.50;;;;;;5025561;28;20039;-55
2022/04/03 12:17:10;;;;;;;2.08;0.70;;;9.70;77.10;;;;;;5024664;28;20049;-53
2022/04/03 12:19:38;;;;;;;2.42;0.93;;;9.80;75.30;;;;;;5029684;28;20048;-57
2022/04/03 12:22:04;;;;;;;3.15;0.88;;;9.80;77.70;;;;;;5008793;28;20033;-59
2022/04/03 12:24:35;;;;;;;6.00;0.80;;;9.90;79.50;;;;;;5023455;28;20121;-56
2022/04/03 12:27:05;;;;;;;3.33;1.00;;;9.60;78.60;;;;;;5014384;28;20319;-55
2022/04/03 12:29:32;;;;;;;3.22;0.95;;;9.60;79.90;;;;;;5022077;28;20057;-57
2022/04/03 12:32:03;;;;;;;3.67;0.80;;;9.70;82.40;;;;;;5025121;28;20048;-56
2022/04/03 12:34:40;;;;;;;2.50;0.93;;;9.50;78.10;;;;;;5023557;28;20484;-56
2022/04/03 12:37:07;;;;;;;3.45;1.38;;;9.70;80.50;;;;;;5026698;28;20532;-53
2022/04/03 12:39:48;;;;;;;2.05;0.82;;;9.20;77.90;;;;;;5008630;28;20042;-56
2022/04/03 12:42:25;;;;;;;2.97;0.80;;;9.00;80.30;;;;;;5038491;28;20041;-60
2022/04/03 12:44:55;;;;;;;4.70;1.00;;;8.70;80.10;;;;;;5026655;28;20497;-57
2022/04/03 12:47:33;;;;;;;2.70;0.75;;;8.80;82.90;;;;;;5032211;28;20122;-54
2022/04/03 12:50:10;;;;;;;1.08;0.63;;;8.60;82.70;;;;;;4999720;28;20095;-55
2022/04/03 12:52:43;;;;;;;3.47;0.88;;;8.70;81.30;;;;;;5025204;28;20048;-56
2022/04/03 12:55:24;;;;;;;5.15;1.00;;;9.00;82.90;;;;;;5017665;28;20034;-55
2022/04/03 13:00:44;;;;;;;2.42;0.90;;;9.10;80.40;;;;;;4997496;28;20142;-56